Погода Арикемисна неделю

Рондония, Бразилия

27 мая-02 июня
  • 27мая
    Сегодня
    +20°
    +28°
    Облачно с прояснениями
    ВремяПогодаТемператураВлажностьДавлениеВетер, м/сВероятность осадков
    02:00Ясно и безоблачно+19°C90 %749 мм2.6 м/с5 %
    05:00Ясно и безоблачно+19°C92 %749 мм2.4 м/с5 %
    08:00Ясно и безоблачно+20°C82 %751 мм2.9 м/с5 %
    11:00Ясно и безоблачно+25°C65 %751 мм2.6 м/с5 %
    14:00Облачно с прояснениями+27°C60 %749 мм2.5 м/с5 %
    17:00Практически безоблачно+27°C69 %748 мм2.1 м/с5 %
    20:00Ясно и безоблачно+23°C81 %749 мм2.7 м/с5 %
    23:00Ясно и безоблачно+22°C83 %750 мм3.0 м/с5 %
  • 28мая
    Вторник
    +19°
    +27°
    Облачно с прояснениями
    ВремяПогодаТемператураВлажностьДавлениеВетер, м/сВероятность осадков
    02:00Ясно и безоблачно+21°C84 %750 мм3.0 м/с5 %
    05:00Практически безоблачно+20°C85 %750 мм3.5 м/с5 %
    08:00Ясно и безоблачно+21°C79 %752 мм4.1 м/с5 %
    11:00Небольшая облачность+26°C59 %752 мм4.2 м/с5 %
    14:00Облачно с прояснениями+27°C57 %749 мм3.3 м/с5 %
    17:00Пасмурно, сплошная облачность+26°C66 %748 мм2.1 м/с5 %
    20:00Небольшая облачность+23°C71 %750 мм2.8 м/с5 %
    23:00Небольшая облачность+21°C76 %751 мм2.9 м/с5 %
  • 29мая
    Среда
    +18°
    +29°
    Облачно с прояснениями
    ВремяПогодаТемператураВлажностьДавлениеВетер, м/сВероятность осадков
    02:00Облачно с прояснениями+19°C82 %750 мм2.7 м/с5 %
    05:00Облачно с прояснениями+20°C83 %750 мм3.1 м/с5 %
    08:00Облачно с прояснениями+20°C77 %752 мм2.9 м/с5 %
    11:00Небольшая облачность+25°C60 %752 мм3.1 м/с5 %
    14:00Облачно с прояснениями+28°C52 %749 мм2.4 м/с5 %
    17:00Небольшая облачность+27°C66 %748 мм1.7 м/с5 %
    20:00Практически безоблачно+22°C85 %749 мм2.0 м/с5 %
    23:00Ясно и безоблачно+20°C88 %750 мм2.4 м/с5 %
  • 30мая
    Четверг
    +20°
    +30°
    Ясно и безоблачно
    ВремяПогодаТемператураВлажностьДавлениеВетер, м/сВероятность осадков
    02:00Ясно и безоблачно+19°C88 %749 мм2.5 м/с5 %
    05:00Ясно и безоблачно+19°C90 %749 мм2.4 м/с5 %
    08:00Ясно и безоблачно+21°C79 %750 мм2.2 м/с5 %
    11:00Ясно и безоблачно+27°C59 %750 мм2.2 м/с5 %
    14:00Ясно и безоблачно+29°C52 %748 мм1.5 м/с5 %
    17:00Практически безоблачно+29°C67 %747 мм1.2 м/с5 %
    20:00Ясно и безоблачно+24°C80 %748 мм2.0 м/с5 %
    23:00Ясно и безоблачно+22°C90 %749 мм1.9 м/с5 %
  • 31мая
    Пятница
    +20°
    +31°
    Практически безоблачно
    ВремяПогодаТемператураВлажностьДавлениеВетер, м/сВероятность осадков
    02:00Ясно и безоблачно+21°C93 %748 мм2.5 м/с5 %
    05:00Ясно и безоблачно+21°C90 %748 мм2.6 м/с5 %
    08:00Ясно и безоблачно+23°C82 %749 мм2.0 м/с5 %
    11:00Ясно и безоблачно+28°C59 %750 мм2.1 м/с5 %
    14:00Практически безоблачно+31°C46 %747 мм1.4 м/с5 %
    17:00Практически безоблачно+30°C65 %746 мм0.5 м/с5 %
    20:00Ясно и безоблачно+25°C86 %747 мм1.7 м/с5 %
    23:00Ясно и безоблачно+23°C92 %747 мм1.4 м/с5 %
Мы используем cookies
Соглашаюсь